sensor_id;sensor_type;location;lat;lon;timestamp;temperature;humidity
13606;DHT22;6874;52.084;5.090;2023-06-19T00:00:56;23.00;57.00
13606;DHT22;6874;52.084;5.090;2023-06-19T00:03:21;23.00;57.30
13606;DHT22;6874;52.084;5.090;2023-06-19T00:05:47;23.00;57.30
13606;DHT22;6874;52.084;5.090;2023-06-19T00:08:12;23.00;57.20
13606;DHT22;6874;52.084;5.090;2023-06-19T00:10:38;22.90;57.20
13606;DHT22;6874;52.084;5.090;2023-06-19T00:13:04;23.00;57.40
13606;DHT22;6874;52.084;5.090;2023-06-19T00:15:29;22.90;57.50
13606;DHT22;6874;52.084;5.090;2023-06-19T00:17:56;22.90;57.60
13606;DHT22;6874;52.084;5.090;2023-06-19T00:20:22;22.90;57.30
13606;DHT22;6874;52.084;5.090;2023-06-19T00:22:48;22.90;57.80
13606;DHT22;6874;52.084;5.090;2023-06-19T00:25:18;23.00;57.80
13606;DHT22;6874;52.084;5.090;2023-06-19T00:27:44;22.90;57.90
13606;DHT22;6874;52.084;5.090;2023-06-19T00:30:10;22.90;58.00
13606;DHT22;6874;52.084;5.090;2023-06-19T00:32:35;22.90;57.80
13606;DHT22;6874;52.084;5.090;2023-06-19T00:35:14;22.90;58.40
13606;DHT22;6874;52.084;5.090;2023-06-19T00:37:40;22.80;58.20
13606;DHT22;6874;52.084;5.090;2023-06-19T00:40:31;22.90;58.60
13606;DHT22;6874;52.084;5.090;2023-06-19T00:42:58;22.90;58.70
13606;DHT22;6874;52.084;5.090;2023-06-19T00:45:24;22.80;58.40
13606;DHT22;6874;52.084;5.090;2023-06-19T00:47:53;22.90;58.90
13606;DHT22;6874;52.084;5.090;2023-06-19T00:50:20;22.80;58.80
13606;DHT22;6874;52.084;5.090;2023-06-19T00:52:46;22.80;58.70
13606;DHT22;6874;52.084;5.090;2023-06-19T00:55:12;22.80;59.10
13606;DHT22;6874;52.084;5.090;2023-06-19T00:57:38;22.80;59.00
13606;DHT22;6874;52.084;5.090;2023-06-19T01:00:05;22.70;59.00
13606;DHT22;6874;52.084;5.090;2023-06-19T01:02:32;22.70;59.10
13606;DHT22;6874;52.084;5.090;2023-06-19T01:04:58;22.70;59.30
13606;DHT22;6874;52.084;5.090;2023-06-19T01:07:40;22.70;59.40
13606;DHT22;6874;52.084;5.090;2023-06-19T01:10:13;22.70;59.50
13606;DHT22;6874;52.084;5.090;2023-06-19T01:12:45;22.70;59.90
13606;DHT22;6874;52.084;5.090;2023-06-19T01:15:16;22.60;59.90
13606;DHT22;6874;52.084;5.090;2023-06-19T01:17:42;22.60;61.00
13606;DHT22;6874;52.084;5.090;2023-06-19T01:20:09;22.60;61.70
13606;DHT22;6874;52.084;5.090;2023-06-19T01:22:36;22.60;62.20
13606;DHT22;6874;52.084;5.090;2023-06-19T01:25:02;22.50;62.30
13606;DHT22;6874;52.084;5.090;2023-06-19T01:27:29;22.50;62.80
13606;DHT22;6874;52.084;5.090;2023-06-19T01:29:56;22.50;63.00
13606;DHT22;6874;52.084;5.090;2023-06-19T01:34:52;22.50;63.60
13606;DHT22;6874;52.084;5.090;2023-06-19T01:37:19;22.50;63.20
13606;DHT22;6874;52.084;5.090;2023-06-19T01:39:46;22.50;63.80
13606;DHT22;6874;52.084;5.090;2023-06-19T01:42:13;22.40;63.80
13606;DHT22;6874;52.084;5.090;2023-06-19T01:44:40;22.40;64.20
13606;DHT22;6874;52.084;5.090;2023-06-19T01:47:10;22.40;64.40
13606;DHT22;6874;52.084;5.090;2023-06-19T01:49:36;22.40;64.70
13606;DHT22;6874;52.084;5.090;2023-06-19T01:52:02;22.40;65.10
13606;DHT22;6874;52.084;5.090;2023-06-19T01:54:27;22.40;65.10
13606;DHT22;6874;52.084;5.090;2023-06-19T01:56:53;22.40;65.10
13606;DHT22;6874;52.084;5.090;2023-06-19T01:59:19;22.40;64.80
13606;DHT22;6874;52.084;5.090;2023-06-19T02:01:45;22.40;65.60
13606;DHT22;6874;52.084;5.090;2023-06-19T02:04:10;22.30;65.50
13606;DHT22;6874;52.084;5.090;2023-06-19T02:06:36;22.40;66.20
13606;DHT22;6874;52.084;5.090;2023-06-19T02:09:01;22.30;65.60
13606;DHT22;6874;52.084;5.090;2023-06-19T02:11:27;22.30;65.70
13606;DHT22;6874;52.084;5.090;2023-06-19T02:13:53;22.30;66.00
13606;DHT22;6874;52.084;5.090;2023-06-19T02:16:18;22.30;66.00
13606;DHT22;6874;52.084;5.090;2023-06-19T02:18:44;22.30;65.80
13606;DHT22;6874;52.084;5.090;2023-06-19T02:21:09;22.30;66.10
13606;DHT22;6874;52.084;5.090;2023-06-19T02:23:35;22.30;66.20
13606;DHT22;6874;52.084;5.090;2023-06-19T02:26:00;22.30;66.30
13606;DHT22;6874;52.084;5.090;2023-06-19T02:28:26;22.30;66.10
13606;DHT22;6874;52.084;5.090;2023-06-19T02:30:53;22.30;66.50
13606;DHT22;6874;52.084;5.090;2023-06-19T02:33:19;22.30;66.50
13606;DHT22;6874;52.084;5.090;2023-06-19T02:35:44;22.20;66.80
13606;DHT22;6874;52.084;5.090;2023-06-19T02:38:10;22.30;66.60
13606;DHT22;6874;52.084;5.090;2023-06-19T02:40:38;22.20;66.50
13606;DHT22;6874;52.084;5.090;2023-06-19T02:43:03;22.20;66.80
13606;DHT22;6874;52.084;5.090;2023-06-19T02:45:29;22.10;67.00
13606;DHT22;6874;52.084;5.090;2023-06-19T02:47:54;22.20;67.00
13606;DHT22;6874;52.084;5.090;2023-06-19T02:50:20;22.10;67.30
13606;DHT22;6874;52.084;5.090;2023-06-19T02:52:46;22.20;67.40
13606;DHT22;6874;52.084;5.090;2023-06-19T02:55:11;22.20;67.40
13606;DHT22;6874;52.084;5.090;2023-06-19T02:57:37;22.10;67.20
13606;DHT22;6874;52.084;5.090;2023-06-19T03:00:03;22.20;67.80
13606;DHT22;6874;52.084;5.090;2023-06-19T03:02:31;22.20;68.00
13606;DHT22;6874;52.084;5.090;2023-06-19T03:04:56;22.20;68.10
13606;DHT22;6874;52.084;5.090;2023-06-19T03:07:22;22.20;68.00
13606;DHT22;6874;52.084;5.090;2023-06-19T03:09:48;22.10;68.00
13606;DHT22;6874;52.084;5.090;2023-06-19T03:12:13;22.10;68.40
13606;DHT22;6874;52.084;5.090;2023-06-19T03:14:39;22.10;69.40
13606;DHT22;6874;52.084;5.090;2023-06-19T03:17:05;22.10;69.50
13606;DHT22;6874;52.084;5.090;2023-06-19T03:19:31;22.10;69.70
13606;DHT22;6874;52.084;5.090;2023-06-19T03:21:56;22.10;69.20
13606;DHT22;6874;52.084;5.090;2023-06-19T03:24:22;22.10;69.50
13606;DHT22;6874;52.084;5.090;2023-06-19T03:26:47;22.10;70.00
13606;DHT22;6874;52.084;5.090;2023-06-19T03:29:13;22.10;69.90
13606;DHT22;6874;52.084;5.090;2023-06-19T03:31:38;22.10;70.80
13606;DHT22;6874;52.084;5.090;2023-06-19T03:34:05;22.10;70.70
13606;DHT22;6874;52.084;5.090;2023-06-19T03:36:30;22.00;70.80
13606;DHT22;6874;52.084;5.090;2023-06-19T03:38:56;22.10;70.70
13606;DHT22;6874;52.084;5.090;2023-06-19T03:41:21;22.10;70.80
13606;DHT22;6874;52.084;5.090;2023-06-19T03:43:47;22.00;71.40
13606;DHT22;6874;52.084;5.090;2023-06-19T03:46:12;22.00;71.40
13606;DHT22;6874;52.084;5.090;2023-06-19T03:48:38;22.00;71.50
13606;DHT22;6874;52.084;5.090;2023-06-19T03:51:04;22.00;71.30
13606;DHT22;6874;52.084;5.090;2023-06-19T03:53:29;22.00;71.80
13606;DHT22;6874;52.084;5.090;2023-06-19T03:55:55;22.00;71.30
13606;DHT22;6874;52.084;5.090;2023-06-19T03:58:20;22.00;72.20
13606;DHT22;6874;52.084;5.090;2023-06-19T04:00:46;22.00;72.50
13606;DHT22;6874;52.084;5.090;2023-06-19T04:03:11;22.00;72.60
13606;DHT22;6874;52.084;5.090;2023-06-19T04:05:38;22.00;72.60
13606;DHT22;6874;52.084;5.090;2023-06-19T04:08:04;21.90;72.50
13606;DHT22;6874;52.084;5.090;2023-06-19T04:10:30;21.90;72.80
13606;DHT22;6874;52.084;5.090;2023-06-19T04:12:56;21.90;73.10
13606;DHT22;6874;52.084;5.090;2023-06-19T04:15:22;21.90;73.20
13606;DHT22;6874;52.084;5.090;2023-06-19T04:17:48;21.90;72.70
13606;DHT22;6874;52.084;5.090;2023-06-19T04:20:14;21.90;73.00
13606;DHT22;6874;52.084;5.090;2023-06-19T04:22:41;21.90;72.70
13606;DHT22;6874;52.084;5.090;2023-06-19T04:25:08;21.90;72.70
13606;DHT22;6874;52.084;5.090;2023-06-19T04:27:34;21.90;73.60
13606;DHT22;6874;52.084;5.090;2023-06-19T04:30:00;21.80;72.70
13606;DHT22;6874;52.084;5.090;2023-06-19T04:32:25;21.90;74.00
13606;DHT22;6874;52.084;5.090;2023-06-19T04:34:51;21.90;74.20
13606;DHT22;6874;52.084;5.090;2023-06-19T04:37:17;21.80;74.10
13606;DHT22;6874;52.084;5.090;2023-06-19T04:39:45;21.80;73.50
13606;DHT22;6874;52.084;5.090;2023-06-19T04:42:13;21.90;73.90
13606;DHT22;6874;52.084;5.090;2023-06-19T04:44:48;21.80;74.00
13606;DHT22;6874;52.084;5.090;2023-06-19T04:47:16;21.80;73.70
13606;DHT22;6874;52.084;5.090;2023-06-19T04:49:41;21.70;74.70
13606;DHT22;6874;52.084;5.090;2023-06-19T04:52:07;21.70;74.00
13606;DHT22;6874;52.084;5.090;2023-06-19T04:54:33;21.70;73.70
13606;DHT22;6874;52.084;5.090;2023-06-19T04:56:58;21.70;73.20
13606;DHT22;6874;52.084;5.090;2023-06-19T04:59:24;21.70;73.70
13606;DHT22;6874;52.084;5.090;2023-06-19T05:01:50;21.70;74.10
13606;DHT22;6874;52.084;5.090;2023-06-19T05:04:19;21.70;73.70
13606;DHT22;6874;52.084;5.090;2023-06-19T05:06:44;21.70;74.20
13606;DHT22;6874;52.084;5.090;2023-06-19T05:09:10;21.70;73.40
13606;DHT22;6874;52.084;5.090;2023-06-19T05:11:36;21.70;73.00
13606;DHT22;6874;52.084;5.090;2023-06-19T05:14:02;21.60;73.30
13606;DHT22;6874;52.084;5.090;2023-06-19T05:16:28;21.60;73.30
13606;DHT22;6874;52.084;5.090;2023-06-19T05:18:53;21.60;73.50
13606;DHT22;6874;52.084;5.090;2023-06-19T05:21:19;21.60;73.30
13606;DHT22;6874;52.084;5.090;2023-06-19T05:23:45;21.60;73.30
13606;DHT22;6874;52.084;5.090;2023-06-19T05:26:18;21.60;73.30
13606;DHT22;6874;52.084;5.090;2023-06-19T05:28:44;21.60;73.00
13606;DHT22;6874;52.084;5.090;2023-06-19T05:31:10;21.60;73.20
13606;DHT22;6874;52.084;5.090;2023-06-19T05:33:35;21.60;73.30
13606;DHT22;6874;52.084;5.090;2023-06-19T05:36:01;21.60;73.50
13606;DHT22;6874;52.084;5.090;2023-06-19T05:38:26;21.50;73.10
13606;DHT22;6874;52.084;5.090;2023-06-19T05:40:55;21.60;73.30
13606;DHT22;6874;52.084;5.090;2023-06-19T05:43:21;21.60;73.20
13606;DHT22;6874;52.084;5.090;2023-06-19T05:45:47;21.60;73.70
13606;DHT22;6874;52.084;5.090;2023-06-19T05:48:13;21.50;73.70
13606;DHT22;6874;52.084;5.090;2023-06-19T05:50:38;21.50;73.20
13606;DHT22;6874;52.084;5.090;2023-06-19T05:53:05;21.50;73.20
13606;DHT22;6874;52.084;5.090;2023-06-19T05:55:30;21.50;73.20
13606;DHT22;6874;52.084;5.090;2023-06-19T05:57:56;21.50;73.00
13606;DHT22;6874;52.084;5.090;2023-06-19T06:00:22;21.50;73.20
13606;DHT22;6874;52.084;5.090;2023-06-19T06:02:48;21.50;73.00
13606;DHT22;6874;52.084;5.090;2023-06-19T06:05:13;21.50;72.50
13606;DHT22;6874;52.084;5.090;2023-06-19T06:07:39;21.50;73.20
13606;DHT22;6874;52.084;5.090;2023-06-19T06:10:05;21.60;73.10
13606;DHT22;6874;52.084;5.090;2023-06-19T06:12:34;21.50;73.10
13606;DHT22;6874;52.084;5.090;2023-06-19T06:15:04;21.50;73.00
13606;DHT22;6874;52.084;5.090;2023-06-19T06:17:30;21.50;72.90
13606;DHT22;6874;52.084;5.090;2023-06-19T06:19:55;21.50;73.10
13606;DHT22;6874;52.084;5.090;2023-06-19T06:22:21;21.60;73.00
13606;DHT22;6874;52.084;5.090;2023-06-19T06:24:46;21.50;72.70
13606;DHT22;6874;52.084;5.090;2023-06-19T06:27:12;21.50;73.20
13606;DHT22;6874;52.084;5.090;2023-06-19T06:29:38;21.50;72.60
13606;DHT22;6874;52.084;5.090;2023-06-19T06:32:05;21.50;74.00
13606;DHT22;6874;52.084;5.090;2023-06-19T06:34:32;21.50;72.70
13606;DHT22;6874;52.084;5.090;2023-06-19T06:36:58;21.60;73.10
13606;DHT22;6874;52.084;5.090;2023-06-19T06:39:24;21.60;73.30
13606;DHT22;6874;52.084;5.090;2023-06-19T06:41:49;21.60;73.20
13606;DHT22;6874;52.084;5.090;2023-06-19T06:44:15;21.70;73.40
13606;DHT22;6874;52.084;5.090;2023-06-19T06:46:41;21.70;73.20
13606;DHT22;6874;52.084;5.090;2023-06-19T06:49:06;21.70;73.00
13606;DHT22;6874;52.084;5.090;2023-06-19T06:51:32;21.70;72.80
13606;DHT22;6874;52.084;5.090;2023-06-19T06:53:57;21.70;73.00
13606;DHT22;6874;52.084;5.090;2023-06-19T06:56:23;21.70;73.70
13606;DHT22;6874;52.084;5.090;2023-06-19T06:58:48;21.70;72.80
13606;DHT22;6874;52.084;5.090;2023-06-19T07:01:14;21.70;73.00
13606;DHT22;6874;52.084;5.090;2023-06-19T07:03:40;21.80;73.20
13606;DHT22;6874;52.084;5.090;2023-06-19T07:06:05;21.80;72.80
13606;DHT22;6874;52.084;5.090;2023-06-19T07:08:31;21.80;73.20
13606;DHT22;6874;52.084;5.090;2023-06-19T07:10:56;21.80;72.50
13606;DHT22;6874;52.084;5.090;2023-06-19T07:13:22;21.90;72.90
13606;DHT22;6874;52.084;5.090;2023-06-19T07:15:48;21.90;72.00
13606;DHT22;6874;52.084;5.090;2023-06-19T07:18:13;21.90;72.30
13606;DHT22;6874;52.084;5.090;2023-06-19T07:20:39;21.90;72.40
13606;DHT22;6874;52.084;5.090;2023-06-19T07:23:04;21.90;72.50
13606;DHT22;6874;52.084;5.090;2023-06-19T07:25:30;21.90;72.10
13606;DHT22;6874;52.084;5.090;2023-06-19T07:27:59;22.00;72.80
13606;DHT22;6874;52.084;5.090;2023-06-19T07:30:24;21.90;72.70
13606;DHT22;6874;52.084;5.090;2023-06-19T07:32:50;22.00;73.20
13606;DHT22;6874;52.084;5.090;2023-06-19T07:35:15;22.00;73.20
13606;DHT22;6874;52.084;5.090;2023-06-19T07:37:41;22.10;73.20
13606;DHT22;6874;52.084;5.090;2023-06-19T07:40:07;22.10;73.00
13606;DHT22;6874;52.084;5.090;2023-06-19T07:42:33;22.20;72.80
13606;DHT22;6874;52.084;5.090;2023-06-19T07:44:58;22.20;72.50
13606;DHT22;6874;52.084;5.090;2023-06-19T07:47:26;22.20;72.40
13606;DHT22;6874;52.084;5.090;2023-06-19T07:49:52;22.30;72.30
13606;DHT22;6874;52.084;5.090;2023-06-19T07:52:17;22.30;72.10
13606;DHT22;6874;52.084;5.090;2023-06-19T07:54:56;22.30;72.10
13606;DHT22;6874;52.084;5.090;2023-06-19T07:57:24;22.30;72.10
13606;DHT22;6874;52.084;5.090;2023-06-19T07:59:50;22.40;71.90
13606;DHT22;6874;52.084;5.090;2023-06-19T08:02:16;22.30;71.80
13606;DHT22;6874;52.084;5.090;2023-06-19T08:04:42;22.40;72.10
13606;DHT22;6874;52.084;5.090;2023-06-19T08:07:08;22.40;71.80
13606;DHT22;6874;52.084;5.090;2023-06-19T08:09:34;22.40;71.90
13606;DHT22;6874;52.084;5.090;2023-06-19T08:12:00;22.40;72.40
13606;DHT22;6874;52.084;5.090;2023-06-19T08:14:26;22.50;72.80
13606;DHT22;6874;52.084;5.090;2023-06-19T08:16:51;22.50;73.30
13606;DHT22;6874;52.084;5.090;2023-06-19T08:19:17;22.60;73.20
13606;DHT22;6874;52.084;5.090;2023-06-19T08:21:42;22.70;73.20
13606;DHT22;6874;52.084;5.090;2023-06-19T08:24:08;22.70;73.70
13606;DHT22;6874;52.084;5.090;2023-06-19T08:26:33;22.90;73.50
13606;DHT22;6874;52.084;5.090;2023-06-19T08:28:59;22.90;73.00
13606;DHT22;6874;52.084;5.090;2023-06-19T08:31:24;23.00;73.10
13606;DHT22;6874;52.084;5.090;2023-06-19T08:33:56;23.10;72.60
13606;DHT22;6874;52.084;5.090;2023-06-19T08:36:22;23.30;72.40
13606;DHT22;6874;52.084;5.090;2023-06-19T08:38:47;23.30;72.00
13606;DHT22;6874;52.084;5.090;2023-06-19T08:41:18;23.40;71.90
13606;DHT22;6874;52.084;5.090;2023-06-19T08:43:44;23.40;71.30
13606;DHT22;6874;52.084;5.090;2023-06-19T08:46:13;23.40;71.20
13606;DHT22;6874;52.084;5.090;2023-06-19T08:48:41;23.40;70.50
13606;DHT22;6874;52.084;5.090;2023-06-19T08:51:07;23.40;71.00
13606;DHT22;6874;52.084;5.090;2023-06-19T08:53:34;23.40;71.30
13606;DHT22;6874;52.084;5.090;2023-06-19T08:56:00;23.40;71.20
13606;DHT22;6874;52.084;5.090;2023-06-19T08:58:26;23.50;70.80
13606;DHT22;6874;52.084;5.090;2023-06-19T09:00:52;23.50;71.00
13606;DHT22;6874;52.084;5.090;2023-06-19T09:03:21;23.50;71.00
13606;DHT22;6874;52.084;5.090;2023-06-19T09:05:48;23.60;70.60
13606;DHT22;6874;52.084;5.090;2023-06-19T09:08:18;23.60;70.50
13606;DHT22;6874;52.084;5.090;2023-06-19T09:11:17;23.60;70.10
13606;DHT22;6874;52.084;5.090;2023-06-19T09:13:43;23.60;70.10
13606;DHT22;6874;52.084;5.090;2023-06-19T09:16:08;23.60;70.10
13606;DHT22;6874;52.084;5.090;2023-06-19T09:18:45;23.60;70.00
13606;DHT22;6874;52.084;5.090;2023-06-19T09:21:17;23.60;70.10
13606;DHT22;6874;52.084;5.090;2023-06-19T09:23:44;23.60;70.80
13606;DHT22;6874;52.084;5.090;2023-06-19T09:26:09;23.70;71.10
13606;DHT22;6874;52.084;5.090;2023-06-19T09:28:40;23.70;71.30
13606;DHT22;6874;52.084;5.090;2023-06-19T09:31:07;23.70;71.40
13606;DHT22;6874;52.084;5.090;2023-06-19T09:33:34;23.90;71.80
13606;DHT22;6874;52.084;5.090;2023-06-19T09:36:02;23.90;71.20
13606;DHT22;6874;52.084;5.090;2023-06-19T09:38:29;24.00;70.60
13606;DHT22;6874;52.084;5.090;2023-06-19T09:40:57;24.10;70.40
13606;DHT22;6874;52.084;5.090;2023-06-19T09:43:37;24.10;70.10
13606;DHT22;6874;52.084;5.090;2023-06-19T09:46:04;24.20;69.70
13606;DHT22;6874;52.084;5.090;2023-06-19T09:48:32;24.20;69.70
13606;DHT22;6874;52.084;5.090;2023-06-19T09:51:16;24.20;69.50
13606;DHT22;6874;52.084;5.090;2023-06-19T09:53:44;24.30;69.70
13606;DHT22;6874;52.084;5.090;2023-06-19T09:56:12;24.30;69.30
13606;DHT22;6874;52.084;5.090;2023-06-19T09:58:38;24.30;70.20
13606;DHT22;6874;52.084;5.090;2023-06-19T10:01:04;24.30;69.60
13606;DHT22;6874;52.084;5.090;2023-06-19T10:03:33;24.40;70.70
13606;DHT22;6874;52.084;5.090;2023-06-19T10:05:59;24.40;70.40
13606;DHT22;6874;52.084;5.090;2023-06-19T10:08:46;24.50;70.50
13606;DHT22;6874;52.084;5.090;2023-06-19T10:11:12;24.60;70.80
13606;DHT22;6874;52.084;5.090;2023-06-19T10:13:40;24.70;70.70
13606;DHT22;6874;52.084;5.090;2023-06-19T10:16:07;24.80;70.20
13606;DHT22;6874;52.084;5.090;2023-06-19T10:18:44;25.00;69.80
13606;DHT22;6874;52.084;5.090;2023-06-19T10:21:21;25.20;70.00
13606;DHT22;6874;52.084;5.090;2023-06-19T10:24:04;25.30;68.80
13606;DHT22;6874;52.084;5.090;2023-06-19T10:26:32;25.50;68.70
13606;DHT22;6874;52.084;5.090;2023-06-19T10:28:57;25.60;68.40
13606;DHT22;6874;52.084;5.090;2023-06-19T10:31:23;25.70;68.10
13606;DHT22;6874;52.084;5.090;2023-06-19T10:33:48;25.90;68.10
13606;DHT22;6874;52.084;5.090;2023-06-19T10:36:19;26.00;66.20
13606;DHT22;6874;52.084;5.090;2023-06-19T10:38:47;26.10;65.80
13606;DHT22;6874;52.084;5.090;2023-06-19T10:41:20;26.10;65.80
13606;DHT22;6874;52.084;5.090;2023-06-19T10:43:59;26.20;65.00
13606;DHT22;6874;52.084;5.090;2023-06-19T10:46:29;26.30;65.20
13606;DHT22;6874;52.084;5.090;2023-06-19T10:48:55;26.30;64.80
13606;DHT22;6874;52.084;5.090;2023-06-19T10:51:39;26.40;64.80
13606;DHT22;6874;52.084;5.090;2023-06-19T10:54:05;26.40;65.00
13606;DHT22;6874;52.084;5.090;2023-06-19T10:56:31;26.40;64.60
13606;DHT22;6874;52.084;5.090;2023-06-19T10:59:01;26.50;64.70
13606;DHT22;6874;52.084;5.090;2023-06-19T11:01:42;26.60;64.10
13606;DHT22;6874;52.084;5.090;2023-06-19T11:04:11;26.70;64.10
13606;DHT22;6874;52.084;5.090;2023-06-19T11:06:38;26.70;63.40
13606;DHT22;6874;52.084;5.090;2023-06-19T11:09:08;26.80;63.00
13606;DHT22;6874;52.084;5.090;2023-06-19T11:11:47;26.80;62.40
13606;DHT22;6874;52.084;5.090;2023-06-19T11:14:14;26.90;61.90
13606;DHT22;6874;52.084;5.090;2023-06-19T11:16:45;26.90;61.00
13606;DHT22;6874;52.084;5.090;2023-06-19T11:19:17;26.90;61.60
13606;DHT22;6874;52.084;5.090;2023-06-19T11:21:49;26.90;61.90
13606;DHT22;6874;52.084;5.090;2023-06-19T11:24:15;26.90;62.10
13606;DHT22;6874;52.084;5.090;2023-06-19T11:26:48;26.90;61.70
13606;DHT22;6874;52.084;5.090;2023-06-19T11:29:18;27.00;61.70
13606;DHT22;6874;52.084;5.090;2023-06-19T11:31:44;27.00;62.00
13606;DHT22;6874;52.084;5.090;2023-06-19T11:34:11;27.00;61.70
13606;DHT22;6874;52.084;5.090;2023-06-19T11:36:37;27.00;60.90
13606;DHT22;6874;52.084;5.090;2023-06-19T11:39:04;27.00;61.00
13606;DHT22;6874;52.084;5.090;2023-06-19T11:41:30;27.00;60.20
13606;DHT22;6874;52.084;5.090;2023-06-19T11:44:08;27.10;60.40
13606;DHT22;6874;52.084;5.090;2023-06-19T11:46:35;27.10;60.80
13606;DHT22;6874;52.084;5.090;2023-06-19T11:49:12;27.10;60.50
13606;DHT22;6874;52.084;5.090;2023-06-19T11:51:38;27.10;60.30
13606;DHT22;6874;52.084;5.090;2023-06-19T11:54:10;27.10;60.60
13606;DHT22;6874;52.084;5.090;2023-06-19T11:56:39;27.20;60.70
13606;DHT22;6874;52.084;5.090;2023-06-19T11:59:09;27.20;61.00
13606;DHT22;6874;52.084;5.090;2023-06-19T12:01:36;27.30;60.90
13606;DHT22;6874;52.084;5.090;2023-06-19T12:04:22;27.40;60.60
13606;DHT22;6874;52.084;5.090;2023-06-19T12:06:48;27.40;60.70
13606;DHT22;6874;52.084;5.090;2023-06-19T12:09:21;27.50;60.90
13606;DHT22;6874;52.084;5.090;2023-06-19T12:12:03;27.60;60.60
13606;DHT22;6874;52.084;5.090;2023-06-19T12:14:35;27.60;60.50
13606;DHT22;6874;52.084;5.090;2023-06-19T12:17:40;27.70;59.90
13606;DHT22;6874;52.084;5.090;2023-06-19T12:20:06;27.80;59.80
13606;DHT22;6874;52.084;5.090;2023-06-19T12:22:34;27.90;59.90
13606;DHT22;6874;52.084;5.090;2023-06-19T12:25:00;27.90;59.50
13606;DHT22;6874;52.084;5.090;2023-06-19T12:27:26;28.00;59.70
13606;DHT22;6874;52.084;5.090;2023-06-19T12:29:52;28.00;59.00
13606;DHT22;6874;52.084;5.090;2023-06-19T12:32:17;28.00;58.70
13606;DHT22;6874;52.084;5.090;2023-06-19T12:34:43;28.10;59.10
13606;DHT22;6874;52.084;5.090;2023-06-19T12:37:15;28.10;58.50
13606;DHT22;6874;52.084;5.090;2023-06-19T12:39:43;28.10;58.40
13606;DHT22;6874;52.084;5.090;2023-06-19T12:42:09;28.10;58.20
13606;DHT22;6874;52.084;5.090;2023-06-19T12:44:37;28.10;57.90
13606;DHT22;6874;52.084;5.090;2023-06-19T12:47:03;28.10;58.40
13606;DHT22;6874;52.084;5.090;2023-06-19T12:49:30;28.10;58.40
13606;DHT22;6874;52.084;5.090;2023-06-19T12:51:56;28.20;58.20
13606;DHT22;6874;52.084;5.090;2023-06-19T12:54:22;28.20;58.10
13606;DHT22;6874;52.084;5.090;2023-06-19T12:56:48;28.20;57.50
13606;DHT22;6874;52.084;5.090;2023-06-19T12:59:14;28.30;57.70
13606;DHT22;6874;52.084;5.090;2023-06-19T13:01:40;28.40;57.30
13606;DHT22;6874;52.084;5.090;2023-06-19T13:04:06;28.30;57.80
13606;DHT22;6874;52.084;5.090;2023-06-19T13:06:32;28.30;57.80
13606;DHT22;6874;52.084;5.090;2023-06-19T13:08:57;28.30;57.90
13606;DHT22;6874;52.084;5.090;2023-06-19T13:11:23;28.40;57.70
13606;DHT22;6874;52.084;5.090;2023-06-19T13:13:49;28.40;58.00
13606;DHT22;6874;52.084;5.090;2023-06-19T13:16:14;28.40;58.30
13606;DHT22;6874;52.084;5.090;2023-06-19T13:18:41;28.50;58.30
13606;DHT22;6874;52.084;5.090;2023-06-19T13:21:07;28.50;58.30
13606;DHT22;6874;52.084;5.090;2023-06-19T13:23:33;28.60;58.50
13606;DHT22;6874;52.084;5.090;2023-06-19T13:25:58;28.70;58.10
13606;DHT22;6874;52.084;5.090;2023-06-19T13:28:24;28.70;57.00
13606;DHT22;6874;52.084;5.090;2023-06-19T13:30:50;28.70;57.20
13606;DHT22;6874;52.084;5.090;2023-06-19T13:33:15;28.70;56.50
13606;DHT22;6874;52.084;5.090;2023-06-19T13:35:42;28.70;56.90
13606;DHT22;6874;52.084;5.090;2023-06-19T13:38:07;28.80;57.00
13606;DHT22;6874;52.084;5.090;2023-06-19T13:40:33;28.80;56.90
13606;DHT22;6874;52.084;5.090;2023-06-19T13:42:59;28.80;56.90
13606;DHT22;6874;52.084;5.090;2023-06-19T13:45:25;28.90;57.00
13606;DHT22;6874;52.084;5.090;2023-06-19T13:47:51;28.90;56.80
13606;DHT22;6874;52.084;5.090;2023-06-19T13:50:17;28.90;56.50
13606;DHT22;6874;52.084;5.090;2023-06-19T13:52:46;28.90;56.40
13606;DHT22;6874;52.084;5.090;2023-06-19T13:55:13;29.00;55.80
13606;DHT22;6874;52.084;5.090;2023-06-19T13:57:40;29.00;56.60
13606;DHT22;6874;52.084;5.090;2023-06-19T14:00:07;29.00;55.20
13606;DHT22;6874;52.084;5.090;2023-06-19T14:02:33;29.00;55.50
13606;DHT22;6874;52.084;5.090;2023-06-19T14:04:58;29.00;55.70
13606;DHT22;6874;52.084;5.090;2023-06-19T14:07:25;29.00;55.40
13606;DHT22;6874;52.084;5.090;2023-06-19T14:09:52;29.00;55.60
13606;DHT22;6874;52.084;5.090;2023-06-19T14:12:18;29.10;55.60
13606;DHT22;6874;52.084;5.090;2023-06-19T14:14:44;29.10;55.60
13606;DHT22;6874;52.084;5.090;2023-06-19T14:17:09;29.10;56.00
13606;DHT22;6874;52.084;5.090;2023-06-19T14:19:35;29.10;55.50
13606;DHT22;6874;52.084;5.090;2023-06-19T14:22:00;29.10;56.00
13606;DHT22;6874;52.084;5.090;2023-06-19T14:24:27;29.20;56.20
13606;DHT22;6874;52.084;5.090;2023-06-19T14:26:53;29.20;55.70
13606;DHT22;6874;52.084;5.090;2023-06-19T14:29:18;29.20;56.10
13606;DHT22;6874;52.084;5.090;2023-06-19T14:31:46;29.30;56.50
13606;DHT22;6874;52.084;5.090;2023-06-19T14:34:11;29.40;56.30
13606;DHT22;6874;52.084;5.090;2023-06-19T14:36:38;29.40;56.00
13606;DHT22;6874;52.084;5.090;2023-06-19T14:39:03;29.50;55.00
13606;DHT22;6874;52.084;5.090;2023-06-19T14:41:29;29.40;55.50
13606;DHT22;6874;52.084;5.090;2023-06-19T14:43:54;29.50;55.60
13606;DHT22;6874;52.084;5.090;2023-06-19T14:46:20;29.50;55.40
13606;DHT22;6874;52.084;5.090;2023-06-19T14:48:46;29.50;55.80
13606;DHT22;6874;52.084;5.090;2023-06-19T14:51:12;29.50;55.40
13606;DHT22;6874;52.084;5.090;2023-06-19T14:53:37;29.60;55.00
13606;DHT22;6874;52.084;5.090;2023-06-19T14:56:03;29.60;55.00
13606;DHT22;6874;52.084;5.090;2023-06-19T14:58:29;29.60;55.00
13606;DHT22;6874;52.084;5.090;2023-06-19T15:00:55;29.70;55.60
13606;DHT22;6874;52.084;5.090;2023-06-19T15:03:20;29.70;55.10
13606;DHT22;6874;52.084;5.090;2023-06-19T15:05:46;29.70;55.60
13606;DHT22;6874;52.084;5.090;2023-06-19T15:08:12;29.70;55.40
13606;DHT22;6874;52.084;5.090;2023-06-19T15:10:37;29.70;55.20
13606;DHT22;6874;52.084;5.090;2023-06-19T15:13:03;29.70;55.30
13606;DHT22;6874;52.084;5.090;2023-06-19T15:15:29;29.80;55.10
13606;DHT22;6874;52.084;5.090;2023-06-19T15:17:54;29.80;54.90
13606;DHT22;6874;52.084;5.090;2023-06-19T15:20:20;29.80;55.20
13606;DHT22;6874;52.084;5.090;2023-06-19T15:22:47;29.80;55.50
13606;DHT22;6874;52.084;5.090;2023-06-19T15:25:13;29.90;55.50
13606;DHT22;6874;52.084;5.090;2023-06-19T15:27:39;29.90;55.40
13606;DHT22;6874;52.084;5.090;2023-06-19T15:30:05;29.90;55.10
13606;DHT22;6874;52.084;5.090;2023-06-19T15:32:30;29.90;55.10
13606;DHT22;6874;52.084;5.090;2023-06-19T15:34:56;29.90;54.70
13606;DHT22;6874;52.084;5.090;2023-06-19T15:37:22;29.90;54.90
13606;DHT22;6874;52.084;5.090;2023-06-19T15:39:47;29.90;54.60
13606;DHT22;6874;52.084;5.090;2023-06-19T15:42:13;29.90;54.20
13606;DHT22;6874;52.084;5.090;2023-06-19T15:44:38;30.00;53.70
13606;DHT22;6874;52.084;5.090;2023-06-19T15:47:04;29.90;54.20